| time (UTC) | temp C | wind direction | speed KPH | gust KPH | rain 1hr cm | rain 24hr cm | rain mn cm | humidity % | barometer mb |
| 20260508051803 | 8 | 0 | 0.0 | 0.0 | 0.00 | 0.61 | 0.00 | 86 | 1014.0 |
| 20260508050904 | 8 | 0 | 0.0 | 0.0 | 0.00 | 0.64 | 0.00 | 86 | 1014.1 |
| 20260508050003 | 8 | 0 | 0.0 | 0.0 | 0.00 | 0.66 | 0.00 | 86 | 1013.7 |
| 20260508045403 | 8 | 0 | 0.0 | 0.0 | 0.00 | 0.66 | 0.00 | 86 | 1013.7 |
| 20260508044503 | 8 | 0 | 0.0 | 0.0 | 0.00 | 0.66 | 0.00 | 86 | 1013.7 |
| 20260508043604 | 8 | 0 | 0.0 | 0.0 | 0.00 | 0.66 | 0.00 | 86 | 1013.8 |
| 20260508042919 | 8 | 0 | 0.0 | 0.0 | 0.00 | 0.66 | 0.00 | 86 | 1013.6 |
| 20260508041803 | 8 | 0 | 0.0 | 0.0 | 0.00 | 0.66 | 0.00 | 86 | 1013.9 |
| 20260508041117 | 8 | 0 | 0.0 | 0.0 | 0.00 | 0.66 | 0.00 | 86 | 1013.6 |
| 20260508040004 | 8 | 0 | 0.0 | 0.0 | 0.00 | 0.66 | 0.00 | 86 | 1013.4 |
| 20260508035403 | 8 | 0 | 0.0 | 0.0 | 0.00 | 0.66 | 0.00 | 86 | 1013.6 |
| 20260508034718 | 8 | 0 | 0.0 | 0.0 | 0.00 | 0.66 | 0.00 | 86 | 1013.6 |
| 20260508033819 | 8 | 0 | 0.0 | 0.0 | 0.00 | 0.69 | 0.00 | 86 | 1013.5 |
| 20260508032703 | 8 | 110 | 0.0 | 1.6 | 0.00 | 0.76 | 0.00 | 86 | 1013.5 |
| 20260508031803 | 8 | 110 | 0.0 | 1.6 | 0.00 | 0.76 | 0.00 | 86 | 1013.5 |
| 20260508030903 | 8 | 0 | 0.0 | 0.0 | 0.00 | 0.76 | 0.00 | 86 | 1013.4 |
| 20260508030003 | 9 | 0 | 0.0 | 0.0 | 0.00 | 0.76 | 0.00 | 86 | 1013.5 |
| 20260508025403 | 9 | 0 | 0.0 | 0.0 | 0.00 | 0.76 | 0.00 | 86 | 1013.5 |
| 20260508024503 | 9 | 0 | 0.0 | 0.0 | 0.00 | 0.76 | 0.00 | 86 | 1013.4 |
| 20260508023603 | 9 | 0 | 0.0 | 0.0 | 0.00 | 0.76 | 0.00 | 86 | 1013.6 |
| 20260508022703 | 9 | 0 | 0.0 | 0.0 | 0.00 | 0.76 | 0.00 | 86 | 1013.5 |
| 20260508021803 | 9 | 0 | 0.0 | 1.6 | 0.00 | 0.76 | 0.00 | 86 | 1013.2 |
| 20260508020903 | 9 | 110 | 0.0 | 1.6 | 0.00 | 0.76 | 0.00 | 86 | 1013.3 |
| 20260508020004 | 9 | 110 | 0.0 | 1.6 | 0.00 | 0.76 | 0.00 | 86 | 1012.9 |
| 20260508015403 | 9 | 110 | 0.0 | 1.6 | 0.00 | 0.76 | 0.00 | 86 | 1013.1 |
| 20260508014503 | 9 | 110 | 0.0 | 4.8 | 0.00 | 0.76 | 0.00 | 86 | 1013.1 |
| 20260508013603 | 9 | 0 | 0.0 | 0.0 | 0.00 | 0.76 | 0.00 | 86 | 1013.1 |
| 20260508012703 | 9 | 0 | 0.0 | 1.6 | 0.00 | 0.76 | 0.00 | 86 | 1013.2 |
| 20260508011803 | 9 | 0 | 0.0 | 0.0 | 0.00 | 0.76 | 0.00 | 86 | 1013.2 |
| 20260508010903 | 9 | 0 | 0.0 | 0.0 | 0.00 | 0.76 | 0.00 | 86 | 1013.2 |
| 20260508010003 | 9 | 0 | 0.0 | 0.0 | 0.00 | 0.76 | 0.00 | 86 | 1013.1 |
| 20260508005403 | 9 | 0 | 0.0 | 0.0 | 0.00 | 0.76 | 0.00 | 86 | 1013.3 |
| 20260508004504 | 9 | 0 | 0.0 | 0.0 | 0.00 | 0.76 | 0.00 | 86 | 1013.2 |
| 20260508003603 | 9 | 45 | 0.0 | 1.6 | 0.00 | 0.76 | 0.00 | 86 | 1012.9 |
| 20260508002703 | 10 | 45 | 0.0 | 1.6 | 0.00 | 0.76 | 0.00 | 86 | 1013.2 |
| 20260508002017 | 10 | 0 | 0.0 | 0.0 | 0.00 | 0.76 | 0.00 | 86 | 1013.2 |
| 20260508000903 | 10 | 0 | 0.0 | 0.0 | 0.00 | 0.76 | 0.00 | 86 | 1013.1 |
| 20260508000003 | 10 | 0 | 0.0 | 0.0 | 0.00 | 0.76 | 0.00 | 86 | 1012.9 |
| 20260507235403 | 10 | 0 | 0.0 | 0.0 | 0.00 | 0.76 | 0.00 | 86 | 1012.9 |
| 20260507234718 | 10 | 0 | 0.0 | 0.0 | 0.00 | 0.76 | 0.00 | 86 | 1012.9 |
| 20260507233603 | 10 | 0 | 0.0 | 0.0 | 0.00 | 0.76 | 0.00 | 86 | 1013.0 |
| 20260507232703 | 10 | 0 | 0.0 | 1.6 | 0.00 | 0.76 | 0.00 | 86 | 1013.0 |
| 20260507231804 | 10 | 0 | 0.0 | 0.0 | 0.00 | 0.76 | 0.00 | 86 | 1013.0 |
| 20260507230903 | 10 | 0 | 0.0 | 0.0 | 0.00 | 0.76 | 0.00 | 85 | 1012.9 |
| 20260507230005 | 10 | 0 | 0.0 | 0.0 | 0.00 | 2.36 | 0.00 | 85 | 1013.1 |
| 20260507225616 | 10 | 0 | 0.0 | 0.0 | 0.00 | 2.36 | 2.36 | 85 | 1012.8 |
| 20260507224504 | 10 | 0 | 0.0 | 0.0 | 0.00 | 2.36 | 2.36 | 85 | 1012.9 |
| 20260507223603 | 10 | 0 | 0.0 | 0.0 | 0.00 | 2.36 | 2.36 | 85 | 1012.9 |
| 20260507222703 | 10 | 44 | 0.0 | 1.6 | 0.00 | 2.36 | 2.36 | 85 | 1012.8 |
| 20260507221803 | 10 | 45 | 0.0 | 1.6 | 0.00 | 2.36 | 2.36 | 85 | 1012.9 |
| 20260507220903 | 10 | 44 | 0.0 | 1.6 | 0.00 | 2.36 | 2.36 | 85 | 1012.7 |
| 20260507220003 | 10 | 44 | 0.0 | 1.6 | 0.00 | 2.36 | 2.36 | 85 | 1012.6 |
| 20260507215403 | 10 | 44 | 0.0 | 1.6 | 0.00 | 2.36 | 2.36 | 85 | 1012.8 |
| 20260507214503 | 10 | 44 | 0.0 | 1.6 | 0.00 | 2.36 | 2.36 | 85 | 1012.8 |
| 20260507213603 | 10 | 44 | 1.6 | 4.8 | 0.00 | 2.36 | 2.36 | 85 | 1012.7 |
| 20260507212703 | 10 | 45 | 0.0 | 1.6 | 0.00 | 2.36 | 2.36 | 84 | 1012.7 |
| 20260507212017 | 10 | 45 | 0.0 | 1.6 | 0.00 | 2.36 | 2.36 | 84 | 1012.6 |
| 20260507210903 | 10 | 0 | 0.0 | 0.0 | 0.00 | 2.36 | 2.36 | 84 | 1012.5 |
| 20260507210003 | 10 | 45 | 0.0 | 1.6 | 0.00 | 2.36 | 2.36 | 84 | 1012.5 |
| 20260507205403 | 11 | 0 | 0.0 | 0.0 | 0.00 | 2.36 | 2.36 | 84 | 1012.5 |
| 20260507204717 | 11 | 0 | 0.0 | 0.0 | 0.00 | 2.36 | 2.36 | 84 | 1012.3 |
| 20260507203604 | 11 | 0 | 0.0 | 0.0 | 0.00 | 2.36 | 2.36 | 83 | 1012.2 |
| 20260507202918 | 11 | 0 | 0.0 | 1.6 | 0.00 | 2.36 | 2.36 | 83 | 1012.1 |
| 20260507202017 | 11 | 0 | 0.0 | 0.0 | 0.00 | 2.36 | 2.36 | 83 | 1012.0 |
| 20260507201118 | 11 | 0 | 0.0 | 0.0 | 0.00 | 2.36 | 2.36 | 83 | 1012.1 |
| 20260507200003 | 11 | 0 | 0.0 | 0.0 | 0.00 | 2.36 | 2.36 | 83 | 1012.0 |
| 20260507195403 | 11 | 0 | 0.0 | 0.0 | 0.00 | 2.36 | 2.36 | 83 | 1011.9 |
| 20260507194503 | 11 | 45 | 0.0 | 1.6 | 0.00 | 2.36 | 2.36 | 83 | 1011.9 |
| 20260507193603 | 11 | 45 | 1.6 | 4.8 | 0.00 | 2.36 | 2.36 | 82 | 1011.5 |
| 20260507192703 | 11 | 45 | 0.0 | 1.6 | 0.00 | 2.36 | 2.36 | 82 | 1011.9 |
| 20260507192017 | 11 | 45 | 0.0 | 1.6 | 0.00 | 2.36 | 2.36 | 82 | 1011.8 |
| 20260507190904 | 11 | 0 | 0.0 | 0.0 | 0.05 | 2.34 | 2.34 | 82 | 1011.5 |
| 20260507190004 | 11 | 45 | 0.0 | 1.6 | 0.05 | 2.34 | 2.34 | 82 | 1011.6 |
| 20260507185403 | 11 | 45 | 0.0 | 1.6 | 0.05 | 2.34 | 2.34 | 81 | 1011.6 |
| 20260507184718 | 12 | 45 | 0.0 | 4.8 | 0.05 | 2.34 | 2.34 | 81 | 1011.7 |
| 20260507183818 | 12 | 0 | 0.0 | 0.0 | 0.05 | 2.34 | 2.34 | 81 | 1011.4 |
| 20260507182704 | 12 | 0 | 0.0 | 0.0 | 0.05 | 2.34 | 2.34 | 80 | 1011.1 |
| 20260507181803 | 12 | 45 | 0.0 | 1.6 | 0.05 | 2.34 | 2.34 | 80 | 1011.2 |
| 20260507180903 | 12 | 45 | 0.0 | 4.8 | 0.00 | 2.29 | 2.29 | 80 | 1011.2 |
| 20260507180003 | 12 | 49 | 3.2 | 8.0 | 0.00 | 2.29 | 2.29 | 80 | 1011.4 |
| 20260507175403 | 12 | 45 | 4.8 | 12.9 | 0.00 | 2.29 | 2.29 | 80 | 1011.2 |
| 20260507174503 | 13 | 25 | 3.2 | 12.9 | 0.00 | 2.29 | 2.29 | 80 | 1011.2 |
| 20260507173603 | 13 | 42 | 1.6 | 6.4 | 0.00 | 2.29 | 2.29 | 80 | 1011.2 |
| 20260507172916 | 13 | 44 | 1.6 | 6.4 | 0.00 | 2.29 | 2.29 | 80 | 1011.0 |
| 20260507171804 | 13 | 18 | 3.2 | 11.3 | 0.03 | 2.29 | 2.29 | 80 | 1011.2 |
| 20260507171117 | 13 | 2 | 4.8 | 11.3 | 0.03 | 2.29 | 2.29 | 80 | 1011.0 |